Aviation Digital Data Service (ADDS)

Output produced by METARs form (1522 UTC 18 January 2018)
found at http://aviationweather.gov/adds/metars/
 
KTYR 181453Z 16004KT 10SM CLR M04/M10 A3056 RMK AO2 SLP353 T10441100 53002